Terminal Aerodrome Forecast
Issued by NWS

Home | Current Version | Previous Version | Text Only | Print | Product List | Glossary On
Versions: 1 2 3 4 5 6 7 8 9 10 11 12 13 14 15 16 17 18 19 20
524
FTUS43 KIWX 291120
TAFSBN
TAF
KSBN 291120Z 2912/3012 05007KT P6SM SCT250
     FM291400 08013KT P6SM BKN200
     FM292200 08014G24KT P6SM BKN200
     FM300600 09014G24KT P6SM SCT030 BKN060=

USA.gov is the U.S. government's official web portal to all federal, state and local government web resources and services.